createdAt,value
2024-01-16T00:00:21.919Z,74.74
2024-01-16T00:02:54.063Z,74.67
2024-01-16T00:05:26.262Z,74.69
2024-01-16T00:08:01.464Z,75.09
2024-01-16T00:10:33.647Z,75.25
2024-01-16T00:13:05.786Z,75.19
2024-01-16T00:15:37.931Z,75.18
2024-01-16T00:18:10.811Z,75.36
2024-01-16T00:20:43.328Z,75.54
2024-01-16T00:23:15.543Z,75.49
2024-01-16T00:25:47.690Z,75.49
2024-01-16T00:28:21.095Z,75.60
2024-01-16T00:30:53.161Z,75.76
2024-01-16T00:33:25.550Z,75.94
2024-01-16T00:35:57.807Z,76.01
2024-01-16T00:38:30.013Z,76.24
2024-01-16T00:41:02.243Z,76.03
2024-01-16T00:43:36.373Z,76.24
2024-01-16T00:46:08.667Z,76.34
2024-01-16T00:48:41.100Z,76.47
2024-01-16T00:51:13.343Z,76.31
2024-01-16T00:53:45.852Z,76.55
2024-01-16T00:56:18.211Z,76.27
2024-01-16T00:58:50.368Z,76.57
2024-01-16T01:01:47.120Z,76.34
2024-01-16T01:04:19.195Z,76.67
2024-01-16T01:06:51.402Z,76.69
2024-01-16T01:09:23.506Z,76.71
2024-01-16T01:11:55.639Z,76.69
2024-01-16T01:14:30.681Z,76.47
2024-01-16T01:17:02.945Z,76.69
2024-01-16T01:19:35.738Z,76.75
2024-01-16T01:22:07.908Z,76.77
2024-01-16T01:24:40.017Z,76.84
2024-01-16T01:27:12.157Z,76.91
2024-01-16T01:29:44.398Z,76.87
2024-01-16T01:32:16.755Z,76.99
2024-01-16T01:34:49.148Z,77.11
2024-01-16T01:37:21.337Z,77.08
2024-01-16T01:39:53.412Z,77.15
2024-01-16T01:42:25.516Z,76.92
2024-01-16T01:44:57.558Z,77.16
2024-01-16T01:47:31.237Z,77.23
2024-01-16T01:50:05.097Z,77.28
2024-01-16T01:52:40.943Z,77.46
2024-01-16T01:55:14.985Z,77.50
2024-01-16T01:57:47.262Z,77.29
2024-01-16T02:00:20.156Z,77.54
2024-01-16T02:02:52.383Z,77.57
2024-01-16T02:05:24.706Z,77.57
2024-01-16T02:07:57.064Z,77.51
2024-01-16T02:10:29.214Z,77.71
2024-01-16T02:13:01.886Z,77.78
2024-01-16T02:15:34.006Z,77.59
2024-01-16T02:18:06.469Z,77.81
2024-01-16T02:20:38.687Z,77.75
2024-01-16T02:23:13.823Z,77.76
2024-01-16T02:25:46.384Z,77.76
2024-01-16T02:28:18.737Z,77.96
2024-01-16T02:30:50.929Z,77.88
2024-01-16T02:33:23.172Z,78.23
2024-01-16T02:35:55.288Z,77.96
2024-01-16T02:38:27.395Z,78.26
2024-01-16T02:40:59.522Z,78.12
2024-01-16T02:43:31.684Z,78.04
2024-01-16T02:46:04.106Z,77.96
2024-01-16T02:48:37.434Z,77.96
2024-01-16T02:51:10.036Z,77.98
2024-01-16T02:53:42.225Z,78.17
2024-01-16T02:56:14.433Z,78.26
2024-01-16T02:58:46.650Z,78.14
2024-01-16T03:01:19.260Z,78.37
2024-01-16T03:03:51.395Z,78.43
2024-01-16T03:06:27.187Z,78.54
2024-01-16T03:08:59.466Z,78.63
2024-01-16T03:11:33.897Z,78.81
2024-01-16T03:14:07.117Z,78.57
2024-01-16T03:16:39.220Z,78.85
2024-01-16T03:19:13.407Z,78.80
2024-01-16T03:21:45.872Z,78.94
2024-01-16T03:24:18.008Z,78.80
2024-01-16T03:26:50.274Z,78.83
2024-01-16T03:29:22.614Z,78.97
2024-01-16T03:31:54.942Z,79.20
2024-01-16T03:34:27.258Z,79.35
2024-01-16T03:36:59.540Z,79.18
2024-01-16T03:39:31.864Z,79.29
2024-01-16T03:42:04.289Z,79.19
2024-01-16T03:44:41.571Z,79.35
2024-01-16T03:47:13.930Z,79.48
2024-01-16T03:49:46.377Z,79.44
2024-01-16T03:52:18.460Z,79.58
2024-01-16T03:54:50.617Z,79.64
2024-01-16T03:57:23.202Z,79.87
2024-01-16T03:59:55.377Z,79.92
2024-01-16T04:02:27.465Z,79.94
2024-01-16T04:04:59.652Z,79.98
2024-01-16T04:07:31.731Z,79.85
2024-01-16T04:10:06.509Z,80.19
2024-01-16T04:12:38.607Z,80.20
2024-01-16T04:15:10.966Z,80.29
2024-01-16T04:17:43.119Z,80.51
2024-01-16T04:20:15.370Z,80.32
2024-01-16T04:22:47.653Z,80.41
2024-01-16T04:25:19.804Z,80.62
2024-01-16T04:27:52.016Z,80.50
2024-01-16T04:30:24.294Z,80.70
2024-01-16T04:32:56.540Z,80.75
2024-01-16T04:35:28.796Z,80.76
2024-01-16T04:38:00.873Z,80.85
2024-01-16T04:40:32.999Z,80.99
2024-01-16T04:43:05.270Z,80.89
2024-01-16T04:45:37.620Z,81.06
2024-01-16T04:48:12.625Z,81.11
2024-01-16T04:50:45.840Z,81.50
2024-01-16T04:53:18.029Z,82.38
2024-01-16T04:55:50.199Z,82.98
2024-01-16T04:58:22.279Z,83.50
2024-01-16T05:00:54.413Z,83.67
2024-01-16T05:03:26.701Z,83.45
2024-01-16T05:05:59.028Z,83.10
2024-01-16T05:08:32.073Z,82.01
2024-01-16T05:11:04.295Z,80.57
2024-01-16T05:13:36.447Z,78.57
2024-01-16T05:16:09.374Z,76.59
2024-01-16T05:18:44.689Z,74.56
2024-01-16T05:21:16.826Z,72.64
2024-01-16T05:23:49.013Z,70.81
2024-01-16T05:26:21.214Z,69.25
2024-01-16T05:28:53.346Z,67.66
2024-01-16T05:31:25.539Z,66.36
2024-01-16T05:33:57.790Z,64.99
2024-01-16T05:36:29.921Z,63.52
2024-01-16T05:39:02.282Z,62.21
2024-01-16T05:41:36.120Z,61.76
2024-01-16T05:44:08.334Z,61.24
2024-01-16T05:46:40.485Z,61.01
2024-01-16T05:49:12.655Z,60.44
2024-01-16T05:51:44.780Z,60.30
2024-01-16T05:54:16.854Z,60.71
2024-01-16T05:56:49.174Z,61.01
2024-01-16T05:59:22.660Z,61.35
2024-01-16T06:01:54.732Z,61.44
2024-01-16T06:04:26.926Z,62.23
2024-01-16T06:06:59.078Z,62.63
2024-01-16T06:09:31.226Z,63.25
2024-01-16T06:12:05.059Z,63.69
2024-01-16T06:14:37.192Z,64.85
2024-01-16T06:17:09.975Z,65.52
2024-01-16T06:19:42.085Z,66.12
2024-01-16T06:22:14.276Z,66.60
2024-01-16T06:24:46.344Z,67.08
2024-01-16T06:27:20.607Z,67.57
2024-01-16T06:29:52.997Z,68.36
2024-01-16T06:32:25.317Z,69.02
2024-01-16T06:34:57.615Z,69.35
2024-01-16T06:37:29.708Z,70.11
2024-01-16T06:40:01.840Z,70.67
2024-01-16T06:42:34.694Z,71.03
2024-01-16T06:45:07.950Z,71.62
2024-01-16T06:47:40.800Z,72.04
2024-01-16T06:50:12.958Z,72.41
2024-01-16T06:52:45.260Z,72.90
2024-01-16T06:55:17.314Z,73.63
2024-01-16T06:57:49.415Z,74.16
2024-01-16T07:00:23.979Z,74.82
2024-01-16T07:02:56.367Z,75.64
2024-01-16T07:05:28.670Z,76.03
2024-01-16T07:08:01.040Z,76.59
2024-01-16T07:10:33.234Z,76.67
2024-01-16T07:13:05.594Z,77.27
2024-01-16T07:15:37.720Z,77.31
2024-01-16T07:18:10.429Z,77.45
2024-01-16T07:20:42.640Z,77.53
2024-01-16T07:23:14.886Z,77.56
2024-01-16T07:25:47.060Z,77.48
2024-01-16T07:28:20.391Z,77.49
2024-01-16T07:30:55.288Z,77.26
2024-01-16T07:33:28.333Z,77.34
2024-01-16T07:36:00.735Z,76.96
2024-01-16T07:38:33.398Z,76.92
2024-01-16T07:41:06.647Z,76.75
2024-01-16T07:43:38.876Z,76.63
2024-01-16T07:46:11.046Z,76.46
2024-01-16T07:48:43.345Z,76.35
2024-01-16T07:51:15.647Z,76.60
2024-01-16T07:53:47.905Z,76.60
2024-01-16T07:56:20.137Z,76.56
2024-01-16T07:58:52.282Z,76.65
2024-01-16T08:01:24.437Z,76.61
2024-01-16T08:03:57.581Z,76.60
2024-01-16T08:06:29.923Z,76.61
2024-01-16T08:09:02.256Z,76.84
2024-01-16T08:11:37.087Z,76.99
2024-01-16T08:14:09.845Z,76.89
2024-01-16T08:16:42.033Z,76.71
2024-01-16T08:19:16.114Z,76.90
2024-01-16T08:21:48.810Z,77.04
2024-01-16T08:24:20.997Z,76.91
2024-01-16T08:26:53.179Z,77.15
2024-01-16T08:29:26.030Z,77.29
2024-01-16T08:31:58.260Z,77.61
2024-01-16T08:34:30.500Z,77.95
2024-01-16T08:37:02.740Z,78.03
2024-01-16T08:39:35.429Z,78.06
2024-01-16T08:42:07.692Z,78.21
2024-01-16T08:44:40.765Z,78.29
2024-01-16T08:47:13.002Z,77.88
2024-01-16T08:49:45.217Z,77.57
2024-01-16T08:52:17.993Z,77.17
2024-01-16T08:54:50.104Z,76.67
2024-01-16T08:57:24.755Z,76.26
2024-01-16T08:59:57.805Z,75.43
2024-01-16T09:02:30.673Z,75.05
2024-01-16T09:05:03.096Z,74.57
2024-01-16T09:07:35.357Z,73.84
2024-01-16T09:10:08.332Z,73.22
2024-01-16T09:12:40.433Z,72.79
2024-01-16T09:15:12.576Z,72.54
2024-01-16T09:17:44.842Z,72.29
2024-01-16T09:20:17.312Z,71.95
2024-01-16T09:22:49.460Z,71.89
2024-01-16T09:25:22.397Z,71.91
2024-01-16T09:27:54.585Z,71.58
2024-01-16T09:30:26.841Z,71.51
2024-01-16T09:32:59.072Z,71.62
2024-01-16T09:35:31.508Z,71.69
2024-01-16T09:38:06.300Z,71.53
2024-01-16T09:40:38.406Z,71.56
2024-01-16T09:43:11.964Z,71.98
2024-01-16T09:45:44.121Z,71.96
2024-01-16T09:48:16.941Z,71.97
2024-01-16T09:50:49.364Z,71.97
2024-01-16T09:53:21.715Z,72.17
2024-01-16T09:55:58.282Z,72.39
2024-01-16T09:58:38.458Z,72.56
2024-01-16T10:01:11.606Z,73.03
2024-01-16T10:03:47.363Z,72.95
2024-01-16T10:06:22.231Z,73.17
2024-01-16T10:08:54.701Z,72.97
2024-01-16T10:11:27.069Z,73.21
2024-01-16T10:14:00.290Z,72.91
2024-01-16T10:17:04.116Z,72.37
2024-01-16T10:19:43.679Z,72.08
2024-01-16T10:22:26.709Z,70.99
2024-01-16T10:25:11.544Z,70.45
2024-01-16T10:27:44.516Z,70.04
2024-01-16T10:30:22.800Z,69.56
2024-01-16T10:32:55.032Z,68.85
2024-01-16T10:35:27.318Z,68.80
2024-01-16T10:37:59.498Z,68.16
2024-01-16T10:40:33.017Z,67.80
2024-01-16T10:43:06.250Z,67.11
2024-01-16T10:45:38.328Z,66.66
2024-01-16T10:48:10.802Z,66.34
2024-01-16T10:50:43.146Z,66.12
2024-01-16T10:53:17.771Z,65.84
2024-01-16T10:55:53.899Z,65.78
2024-01-16T10:58:31.637Z,65.63
2024-01-16T11:01:07.119Z,65.68
2024-01-16T11:03:44.884Z,65.42
2024-01-16T11:06:19.481Z,65.31
2024-01-16T11:08:53.852Z,65.17
2024-01-16T11:11:26.933Z,65.37
2024-01-16T11:13:59.977Z,65.73
2024-01-16T11:16:33.862Z,65.85
2024-01-16T11:19:25.000Z,65.70
2024-01-16T11:22:02.292Z,65.68
2024-01-16T11:24:38.002Z,65.77
2024-01-16T11:27:10.246Z,66.02
2024-01-16T11:29:42.450Z,65.97
2024-01-16T11:32:43.198Z,66.47
2024-01-16T11:35:41.125Z,67.00
2024-01-16T11:38:21.935Z,67.60
2024-01-16T11:40:55.447Z,68.27
2024-01-16T11:43:33.774Z,68.68
2024-01-16T11:46:10.249Z,69.07
2024-01-16T11:48:44.289Z,69.59
2024-01-16T11:51:26.947Z,70.09
2024-01-16T11:53:59.285Z,70.19
2024-01-16T11:57:01.252Z,70.16
2024-01-16T12:00:01.574Z,71.10
2024-01-16T12:02:50.239Z,65.25
2024-01-16T12:05:23.361Z,63.15
2024-01-16T12:07:56.283Z,62.49
2024-01-16T12:10:28.486Z,63.40
2024-01-16T12:13:04.453Z,60.28
2024-01-16T12:15:37.831Z,58.75
2024-01-16T12:18:19.687Z,57.53
2024-01-16T12:21:00.117Z,56.13
2024-01-16T12:23:32.359Z,55.46
2024-01-16T12:26:05.070Z,55.54
2024-01-16T12:28:37.534Z,54.64
2024-01-16T12:31:09.748Z,54.06
2024-01-16T12:33:47.280Z,53.69
2024-01-16T12:36:24.765Z,53.54
2024-01-16T12:38:58.116Z,52.49
2024-01-16T12:41:53.249Z,51.60
2024-01-16T12:44:31.906Z,51.62
2024-01-16T12:47:04.360Z,51.58
2024-01-16T12:49:46.282Z,51.78
2024-01-16T12:52:23.363Z,51.39
2024-01-16T12:55:03.115Z,50.96
2024-01-16T12:57:35.661Z,50.30
2024-01-16T13:00:25.580Z,35.52
2024-01-16T13:03:00.255Z,37.03
2024-01-16T13:05:34.164Z,41.36
2024-01-16T13:08:07.441Z,45.78
2024-01-16T13:10:39.663Z,49.98
2024-01-16T13:13:18.997Z,58.77
2024-01-16T13:15:51.910Z,68.04
2024-01-16T13:18:27.154Z,77.63
2024-01-16T13:21:01.195Z,83.30
2024-01-16T13:23:33.477Z,88.24
2024-01-16T13:26:05.882Z,92.68
2024-01-16T13:28:37.993Z,96.03
2024-01-16T13:31:10.250Z,100.00
2024-01-16T13:33:42.607Z,100.00
2024-01-16T13:36:16.711Z,100.00
2024-01-16T13:38:50.030Z,100.00
2024-01-16T13:41:22.546Z,100.00
2024-01-16T13:43:54.793Z,100.00
2024-01-16T13:46:37.202Z,100.00
2024-01-16T13:49:19.403Z,100.00
2024-01-16T13:51:51.632Z,100.00
2024-01-16T13:54:23.823Z,100.00
2024-01-16T13:57:06.025Z,100.00
2024-01-16T13:59:40.326Z,100.00
2024-01-16T14:02:12.846Z,100.00
2024-01-16T14:04:45.145Z,100.00
2024-01-16T14:07:17.600Z,100.00
2024-01-16T14:09:49.815Z,100.00
2024-01-16T14:12:22.263Z,100.00
2024-01-16T14:14:54.478Z,100.00
2024-01-16T14:17:27.592Z,100.00
2024-01-16T14:20:00.584Z,100.00
2024-01-16T14:22:32.882Z,100.00
2024-01-16T14:25:11.975Z,100.00
2024-01-16T14:27:45.480Z,100.00
2024-01-16T14:30:18.192Z,100.00
2024-01-16T14:32:51.065Z,100.00
2024-01-16T14:35:25.364Z,100.00
2024-01-16T14:37:57.790Z,100.00
2024-01-16T14:40:29.977Z,100.00
2024-01-16T14:43:05.509Z,100.00
2024-01-16T14:45:37.688Z,100.00
2024-01-16T14:48:11.733Z,100.00
2024-01-16T14:50:44.679Z,100.00
2024-01-16T14:53:16.947Z,100.00
2024-01-16T14:55:49.894Z,100.00
2024-01-16T14:58:24.461Z,100.00
2024-01-16T15:00:57.667Z,100.00
2024-01-16T15:03:32.886Z,100.00
2024-01-16T15:06:06.450Z,100.00
2024-01-16T15:08:38.653Z,100.00
2024-01-16T15:11:11.907Z,100.00
2024-01-16T15:13:44.103Z,100.00
2024-01-16T15:16:20.600Z,100.00
2024-01-16T15:18:53.132Z,100.00
2024-01-16T15:21:26.365Z,100.00
2024-01-16T15:23:58.692Z,100.00
2024-01-16T15:26:32.627Z,100.00
2024-01-16T15:29:06.379Z,100.00
2024-01-16T15:31:38.523Z,100.00
2024-01-16T15:34:13.039Z,100.00
2024-01-16T15:36:47.934Z,100.00
2024-01-16T15:39:20.321Z,100.00
2024-01-16T15:41:52.739Z,100.00
2024-01-16T15:44:25.519Z,100.00
2024-01-16T15:47:03.127Z,100.00
2024-01-16T15:49:36.870Z,100.00
2024-01-16T15:52:09.530Z,100.00
2024-01-16T15:54:42.026Z,100.00
2024-01-16T15:57:14.309Z,100.00
2024-01-16T15:59:46.506Z,100.00
2024-01-16T16:02:18.930Z,100.00
2024-01-16T16:04:51.352Z,100.00
2024-01-16T16:07:26.266Z,100.00
2024-01-16T16:09:59.285Z,100.00
2024-01-16T16:12:31.419Z,100.00
2024-01-16T16:15:05.648Z,100.00
2024-01-16T16:17:38.022Z,100.00
2024-01-16T16:20:11.410Z,100.00
2024-01-16T16:22:45.496Z,100.00
2024-01-16T16:25:19.089Z,100.00
2024-01-16T16:27:51.272Z,100.00
2024-01-16T16:30:23.494Z,100.00
2024-01-16T16:32:55.847Z,100.00
2024-01-16T16:35:28.053Z,100.00
2024-01-16T16:38:00.284Z,100.00
2024-01-16T16:40:33.760Z,100.00
2024-01-16T16:43:05.914Z,100.00
2024-01-16T16:45:38.950Z,100.00
2024-01-16T16:48:11.510Z,100.00
2024-01-16T16:50:44.412Z,100.00
2024-01-16T16:53:16.537Z,100.00
2024-01-16T16:55:48.682Z,100.00
2024-01-16T16:58:21.832Z,100.00
2024-01-16T17:00:54.138Z,100.00
2024-01-16T17:03:26.282Z,100.00
2024-01-16T17:05:59.862Z,100.00
2024-01-16T17:08:36.937Z,100.00
2024-01-16T17:11:10.381Z,100.00
2024-01-16T17:13:43.934Z,100.00
2024-01-16T17:16:23.962Z,100.00
2024-01-16T17:18:56.290Z,100.00
2024-01-16T17:21:28.524Z,100.00
2024-01-16T17:24:01.208Z,100.00
2024-01-16T17:26:33.729Z,100.00
2024-01-16T17:29:06.198Z,100.00
2024-01-16T17:31:38.773Z,100.00
2024-01-16T17:34:13.785Z,100.00
2024-01-16T17:36:47.673Z,100.00
2024-01-16T17:39:22.242Z,100.00
2024-01-16T17:41:54.569Z,100.00
2024-01-16T17:44:26.737Z,100.00
2024-01-16T17:46:59.059Z,100.00
2024-01-16T17:49:34.752Z,100.00
2024-01-16T17:52:10.865Z,100.00
2024-01-16T17:54:43.058Z,100.00
2024-01-16T17:57:15.212Z,100.00
2024-01-16T17:59:47.366Z,100.00
2024-01-16T18:02:19.527Z,100.00
2024-01-16T18:04:52.552Z,100.00
2024-01-16T18:07:24.820Z,100.00
2024-01-16T18:09:57.006Z,100.00
2024-01-16T18:12:29.819Z,100.00
2024-01-16T18:15:02.360Z,100.00
2024-01-16T18:17:34.772Z,100.00
2024-01-16T18:20:11.542Z,100.00
2024-01-16T18:22:52.602Z,100.00
2024-01-16T18:25:27.837Z,100.00
2024-01-16T18:28:00.830Z,100.00
2024-01-16T18:30:34.528Z,100.00
2024-01-16T18:33:06.777Z,100.00
2024-01-16T18:35:40.204Z,100.00
2024-01-16T18:38:12.951Z,100.00
2024-01-16T18:40:45.184Z,100.00
2024-01-16T18:43:17.394Z,100.00
2024-01-16T18:45:49.883Z,100.00
2024-01-16T18:48:22.228Z,100.00
2024-01-16T18:50:56.120Z,100.00
2024-01-16T18:53:29.024Z,100.00
2024-01-16T18:56:01.272Z,100.00
2024-01-16T18:58:35.084Z,100.00
2024-01-16T19:01:08.641Z,100.00
2024-01-16T19:03:41.452Z,100.00
2024-01-16T19:06:16.577Z,100.00
2024-01-16T19:08:48.726Z,100.00
2024-01-16T19:11:21.022Z,100.00
2024-01-16T19:13:53.306Z,100.00
2024-01-16T19:16:25.540Z,100.00
2024-01-16T19:18:58.854Z,100.00
2024-01-16T19:21:31.123Z,100.00
2024-01-16T19:24:03.355Z,100.00
2024-01-16T19:26:36.129Z,100.00
2024-01-16T19:29:11.035Z,100.00
2024-01-16T19:31:46.828Z,100.00
2024-01-16T19:34:19.361Z,100.00
2024-01-16T19:36:51.718Z,100.00
2024-01-16T19:39:26.336Z,100.00
2024-01-16T19:41:59.958Z,100.00
2024-01-16T19:44:32.146Z,100.00
2024-01-16T19:47:05.701Z,100.00
2024-01-16T19:49:38.463Z,100.00
2024-01-16T19:52:11.011Z,100.00
2024-01-16T19:54:45.437Z,100.00
2024-01-16T19:57:17.693Z,100.00
2024-01-16T19:59:49.887Z,100.00
2024-01-16T20:02:23.209Z,100.00
2024-01-16T20:04:55.727Z,100.00
2024-01-16T20:07:28.159Z,100.00
2024-01-16T20:10:00.520Z,100.00
2024-01-16T20:12:39.739Z,100.00
2024-01-16T20:15:19.796Z,100.00
2024-01-16T20:17:54.884Z,100.00
2024-01-16T20:20:28.285Z,100.00
2024-01-16T20:23:00.510Z,100.00
2024-01-16T20:25:32.693Z,100.00
2024-01-16T20:28:06.784Z,100.00
2024-01-16T20:30:41.184Z,100.00
2024-01-16T20:33:13.468Z,100.00
2024-01-16T20:35:45.957Z,100.00
2024-01-16T20:38:18.270Z,100.00
2024-01-16T20:40:51.331Z,100.00
2024-01-16T20:43:23.528Z,100.00
2024-01-16T20:45:57.144Z,100.00
2024-01-16T20:48:34.122Z,100.00
2024-01-16T20:51:07.113Z,100.00
2024-01-16T20:53:39.383Z,100.00
2024-01-16T20:56:11.810Z,100.00
2024-01-16T20:58:43.983Z,100.00
2024-01-16T21:01:16.474Z,100.00
2024-01-16T21:03:49.557Z,100.00
2024-01-16T21:06:21.832Z,100.00
2024-01-16T21:08:54.900Z,100.00
2024-01-16T21:11:27.335Z,100.00
2024-01-16T21:13:59.777Z,100.00
2024-01-16T21:16:33.119Z,100.00
2024-01-16T21:19:08.892Z,100.00
2024-01-16T21:21:43.891Z,100.00
2024-01-16T21:24:16.504Z,100.00
2024-01-16T21:26:49.292Z,100.00
2024-01-16T21:29:22.798Z,100.00
2024-01-16T21:31:55.380Z,100.00
2024-01-16T21:34:28.286Z,100.00
2024-01-16T21:37:01.278Z,100.00
2024-01-16T21:39:36.616Z,100.00
2024-01-16T21:42:10.114Z,100.00
2024-01-16T21:44:42.292Z,100.00
2024-01-16T21:47:14.354Z,100.00
2024-01-16T21:49:48.538Z,100.00
2024-01-16T21:52:23.253Z,100.00
2024-01-16T21:54:55.419Z,100.00
2024-01-16T21:57:29.673Z,100.00
2024-01-16T22:00:04.583Z,100.00
2024-01-16T22:02:36.857Z,100.00
2024-01-16T22:05:12.716Z,100.00
2024-01-16T22:07:44.855Z,100.00
2024-01-16T22:10:17.408Z,100.00
2024-01-16T22:12:49.590Z,100.00
2024-01-16T22:15:21.808Z,100.00
2024-01-16T22:17:56.476Z,100.00
2024-01-16T22:20:33.561Z,100.00
2024-01-16T22:23:06.158Z,100.00
2024-01-16T22:25:38.305Z,100.00
2024-01-16T22:28:12.474Z,100.00
2024-01-16T22:30:44.789Z,100.00
2024-01-16T22:33:17.068Z,100.00
2024-01-16T22:35:50.331Z,100.00
2024-01-16T22:38:22.671Z,100.00
2024-01-16T22:40:54.834Z,100.00
2024-01-16T22:43:26.958Z,100.00
2024-01-16T22:46:00.450Z,100.00
2024-01-16T22:48:32.782Z,100.00
2024-01-16T22:51:05.330Z,100.00
2024-01-16T22:53:37.642Z,100.00
2024-01-16T22:56:10.919Z,100.00
2024-01-16T22:58:43.294Z,100.00
2024-01-16T23:01:16.036Z,100.00
2024-01-16T23:03:54.993Z,100.00
2024-01-16T23:06:30.441Z,100.00
2024-01-16T23:09:02.964Z,100.00
2024-01-16T23:11:35.167Z,100.00
2024-01-16T23:14:08.323Z,100.00
2024-01-16T23:16:40.565Z,100.00
2024-01-16T23:19:12.865Z,100.00
2024-01-16T23:21:48.400Z,100.00
2024-01-16T23:24:20.584Z,100.00
2024-01-16T23:26:52.814Z,100.00
2024-01-16T23:29:24.984Z,100.00
2024-01-16T23:31:57.264Z,100.00
2024-01-16T23:34:29.703Z,100.00
2024-01-16T23:37:01.893Z,100.00
2024-01-16T23:39:35.794Z,100.00
2024-01-16T23:42:27.888Z,100.00
2024-01-16T23:45:01.960Z,100.00
2024-01-16T23:47:36.642Z,100.00
2024-01-16T23:50:09.111Z,100.00
2024-01-16T23:52:41.857Z,100.00
2024-01-16T23:55:14.116Z,100.00
2024-01-16T23:57:46.366Z,100.00
